createdAt,value
2019-05-17T00:02:19.178Z,10.57
2019-05-17T00:04:49.524Z,10.30
2019-05-17T00:07:20.237Z,11.03
2019-05-17T00:09:50.755Z,10.37
2019-05-17T00:12:21.487Z,9.73
2019-05-17T00:14:52.502Z,10.33
2019-05-17T00:17:22.930Z,11.40
2019-05-17T00:19:53.379Z,10.57
2019-05-17T00:22:23.789Z,10.23
2019-05-17T00:24:56.681Z,10.43
2019-05-17T00:27:27.409Z,10.83
2019-05-17T00:29:57.872Z,10.80
2019-05-17T00:32:28.364Z,9.90
2019-05-17T00:34:58.765Z,10.87
2019-05-17T00:37:29.228Z,9.67
2019-05-17T00:39:59.580Z,10.53
2019-05-17T00:42:29.957Z,11.40
2019-05-17T00:45:00.422Z,9.97
2019-05-17T00:47:30.822Z,10.13
2019-05-17T00:50:01.205Z,11.13
2019-05-17T00:52:31.521Z,9.70
2019-05-17T00:55:01.963Z,9.50
2019-05-17T00:57:32.442Z,9.70
2019-05-17T01:00:03.506Z,10.17
2019-05-17T01:02:36.214Z,9.50
2019-05-17T01:05:06.879Z,10.27
2019-05-17T01:07:39.060Z,10.50
2019-05-17T01:10:10.425Z,9.80
2019-05-17T01:12:42.638Z,10.47
2019-05-17T01:15:13.931Z,9.40
2019-05-17T01:17:47.381Z,9.70
2019-05-17T01:20:18.122Z,10.20
2019-05-17T01:22:48.540Z,10.37
2019-05-17T01:25:20.055Z,10.50
2019-05-17T01:27:52.012Z,10.90
2019-05-17T01:30:22.464Z,11.40
2019-05-17T01:32:53.524Z,10.67
2019-05-17T01:35:26.462Z,10.10
2019-05-17T01:37:56.540Z,11.20
2019-05-17T01:40:27.427Z,10.30
2019-05-17T01:42:58.335Z,11.10
2019-05-17T01:45:28.749Z,11.27
2019-05-17T01:47:59.150Z,10.30
2019-05-17T01:50:29.597Z,11.27
2019-05-17T01:52:59.921Z,9.63
2019-05-17T01:55:30.298Z,11.63
2019-05-17T01:58:00.716Z,9.90
2019-05-17T02:00:31.142Z,10.70
2019-05-17T02:03:01.569Z,9.77
2019-05-17T02:05:32.118Z,9.87
2019-05-17T02:08:02.445Z,9.40
2019-05-17T02:10:32.820Z,9.97
2019-05-17T02:13:03.721Z,9.87
2019-05-17T02:15:34.192Z,10.10
2019-05-17T02:18:07.093Z,9.97
2019-05-17T02:20:37.531Z,9.13
2019-05-17T02:23:08.025Z,9.20
2019-05-17T02:25:38.339Z,8.90
2019-05-17T02:28:08.801Z,9.93
2019-05-17T02:30:39.308Z,10.87
2019-05-17T02:33:12.624Z,10.00
2019-05-17T02:35:42.900Z,9.93
2019-05-17T02:38:14.160Z,9.10
2019-05-17T02:40:45.381Z,9.13
2019-05-17T02:43:15.786Z,8.60
2019-05-17T02:45:46.166Z,8.93
2019-05-17T02:48:23.433Z,8.80
2019-05-17T02:50:54.356Z,9.33
2019-05-17T02:53:24.691Z,8.67
2019-05-17T02:55:55.167Z,9.00
2019-05-17T02:58:25.525Z,9.30
2019-05-17T03:00:56.543Z,8.13
2019-05-17T03:03:27.035Z,8.27
2019-05-17T03:05:57.409Z,8.13
2019-05-17T03:08:28.080Z,7.90
2019-05-17T03:10:58.514Z,8.50
2019-05-17T03:13:28.940Z,7.10
2019-05-17T03:15:59.298Z,7.37
2019-05-17T03:18:33.056Z,7.50
2019-05-17T03:21:03.769Z,8.23
2019-05-17T03:23:34.741Z,7.87
2019-05-17T03:26:05.203Z,8.17
2019-05-17T03:28:35.646Z,8.83
2019-05-17T03:31:08.764Z,7.37
2019-05-17T03:33:38.569Z,8.50
2019-05-17T03:36:09.010Z,8.57
2019-05-17T03:38:39.431Z,7.83
2019-05-17T03:41:22.220Z,7.87
2019-05-17T03:43:44.202Z,7.90
2019-05-17T03:46:14.371Z,7.60
2019-05-17T03:48:44.773Z,7.77
2019-05-17T03:51:15.213Z,7.17
2019-05-17T03:53:45.587Z,7.30
2019-05-17T03:56:16.004Z,8.80
2019-05-17T03:58:46.328Z,8.13
2019-05-17T04:01:16.943Z,8.27
2019-05-17T04:03:47.607Z,8.63
2019-05-17T04:06:18.075Z,7.47
2019-05-17T04:08:48.445Z,8.40
2019-05-17T04:11:27.996Z,8.47
2019-05-17T04:13:53.783Z,7.37
2019-05-17T04:16:23.949Z,7.80
2019-05-17T04:18:54.562Z,7.40
2019-05-17T04:21:25.848Z,8.00
2019-05-17T04:23:56.638Z,7.67
2019-05-17T04:26:26.990Z,7.30
2019-05-17T04:28:57.392Z,7.67
2019-05-17T04:31:30.568Z,7.83
2019-05-17T04:34:03.113Z,8.60
2019-05-17T04:36:32.399Z,7.47
2019-05-17T04:39:02.904Z,7.30
2019-05-17T04:41:45.017Z,8.10
2019-05-17T04:44:05.516Z,7.00
2019-05-17T04:46:35.966Z,7.87
2019-05-17T04:49:06.436Z,8.30
2019-05-17T04:51:36.944Z,7.70
2019-05-17T04:54:07.380Z,7.80
2019-05-17T04:56:37.740Z,7.00
2019-05-17T04:59:08.117Z,7.50
2019-05-17T05:01:38.622Z,7.63
2019-05-17T05:04:08.989Z,8.20
2019-05-17T05:06:39.551Z,8.47
2019-05-17T05:09:12.783Z,7.50
2019-05-17T05:11:55.670Z,7.10
2019-05-17T05:14:14.646Z,8.10
2019-05-17T05:16:45.567Z,7.80
2019-05-17T05:19:15.927Z,7.10
2019-05-17T05:21:47.189Z,7.40
2019-05-17T05:24:17.641Z,8.63
2019-05-17T05:26:48.010Z,8.30
2019-05-17T05:29:18.393Z,7.80
2019-05-17T05:31:48.883Z,8.00
2019-05-17T05:34:21.466Z,8.97
2019-05-17T05:36:52.491Z,8.50
2019-05-17T05:39:22.961Z,9.37
2019-05-17T05:42:06.495Z,9.60
2019-05-17T05:44:25.555Z,9.67
2019-05-17T05:46:56.011Z,9.37
2019-05-17T05:49:26.592Z,9.17
2019-05-17T05:51:57.157Z,8.43
2019-05-17T05:54:28.925Z,9.50
2019-05-17T05:57:02.090Z,8.53
2019-05-17T05:59:32.607Z,10.23
2019-05-17T06:02:03.988Z,8.13
2019-05-17T06:04:35.107Z,9.40
2019-05-17T06:07:05.537Z,8.40
2019-05-17T06:09:35.958Z,8.83
2019-05-17T06:12:18.970Z,8.90
2019-05-17T06:14:38.571Z,8.30
2019-05-17T06:17:09.070Z,8.87
2019-05-17T06:19:42.063Z,8.37
2019-05-17T06:22:12.970Z,8.90
2019-05-17T06:24:43.621Z,9.57
2019-05-17T06:27:14.038Z,9.20
2019-05-17T06:29:47.169Z,8.77
2019-05-17T06:32:17.882Z,8.23
2019-05-17T06:34:48.395Z,8.20
2019-05-17T06:37:18.765Z,8.37
2019-05-17T06:39:49.159Z,8.67
2019-05-17T06:42:22.934Z,8.87
2019-05-17T06:44:52.348Z,8.20
2019-05-17T06:47:22.790Z,7.40
2019-05-17T06:49:53.643Z,8.63
2019-05-17T06:52:24.144Z,9.13
2019-05-17T06:54:54.547Z,8.43
2019-05-17T06:57:24.894Z,8.10
2019-05-17T06:59:55.206Z,8.30
2019-05-17T07:02:25.621Z,8.17
2019-05-17T07:04:57.684Z,9.33
2019-05-17T07:07:30.489Z,8.43
2019-05-17T07:10:01.220Z,8.33
2019-05-17T07:12:33.109Z,9.00
2019-05-17T07:15:03.685Z,9.60
2019-05-17T07:17:34.167Z,9.53
2019-05-17T07:20:06.232Z,9.47
2019-05-17T07:22:37.058Z,9.43
2019-05-17T07:25:10.477Z,9.60
2019-05-17T07:27:45.915Z,9.93
2019-05-17T07:30:16.468Z,9.00
2019-05-17T07:32:46.833Z,9.70
2019-05-17T07:35:19.614Z,9.20
2019-05-17T07:37:50.174Z,10.67
2019-05-17T07:40:21.703Z,10.03
2019-05-17T07:42:52.095Z,10.70
2019-05-17T07:45:22.894Z,8.70
2019-05-17T07:47:53.436Z,9.87
2019-05-17T07:50:23.856Z,9.50
2019-05-17T07:52:54.369Z,10.80
2019-05-17T07:55:24.766Z,10.47
2019-05-17T07:57:55.169Z,11.93
2019-05-17T08:00:25.706Z,12.13
2019-05-17T08:02:56.680Z,10.90
2019-05-17T08:05:29.488Z,11.80
2019-05-17T08:08:00.135Z,12.13
2019-05-17T08:10:31.885Z,11.80
2019-05-17T08:13:02.732Z,11.13
2019-05-17T08:15:35.744Z,11.50
2019-05-17T08:18:10.486Z,12.20
2019-05-17T08:20:40.294Z,11.17
2019-05-17T08:23:11.279Z,11.43
2019-05-17T08:25:52.605Z,11.47
2019-05-17T08:28:14.986Z,10.57
2019-05-17T08:30:45.472Z,12.17
2019-05-17T08:33:16.213Z,10.90
2019-05-17T08:35:46.597Z,12.00
2019-05-17T08:38:19.575Z,11.20
2019-05-17T08:40:50.907Z,11.93
2019-05-17T08:43:22.731Z,11.23
2019-05-17T08:45:53.263Z,12.30
2019-05-17T08:48:23.617Z,12.10
2019-05-17T08:50:54.189Z,13.63
2019-05-17T08:53:24.555Z,13.57
2019-05-17T08:55:54.995Z,13.63
2019-05-17T08:58:25.493Z,13.50
2019-05-17T09:00:55.876Z,13.67
2019-05-17T09:03:26.229Z,14.00
2019-05-17T09:06:01.472Z,14.67
2019-05-17T09:08:29.911Z,14.93
2019-05-17T09:11:00.665Z,15.17
2019-05-17T09:13:31.177Z,14.90
2019-05-17T09:16:01.596Z,15.43
2019-05-17T09:18:32.068Z,14.13
2019-05-17T09:21:02.373Z,14.33
2019-05-17T09:23:32.836Z,14.80
2019-05-17T09:26:03.254Z,15.23
2019-05-17T09:28:34.636Z,15.10
2019-05-17T09:31:05.403Z,15.37
2019-05-17T09:33:40.536Z,14.43
2019-05-17T09:36:10.533Z,15.40
2019-05-17T09:38:40.921Z,15.17
2019-05-17T09:41:11.976Z,16.90
2019-05-17T09:43:42.345Z,15.20
2019-05-17T09:46:12.887Z,15.20
2019-05-17T09:48:46.823Z,15.57
2019-05-17T09:51:15.966Z,15.57
2019-05-17T09:53:46.447Z,16.30
2019-05-17T09:56:17.236Z,17.40
2019-05-17T09:58:49.423Z,16.63
2019-05-17T10:01:20.000Z,15.17
2019-05-17T10:03:50.772Z,16.83
2019-05-17T10:06:21.379Z,16.07
2019-05-17T10:08:52.147Z,14.77
2019-05-17T10:11:22.569Z,15.20
2019-05-17T10:13:52.969Z,16.33
2019-05-17T10:16:24.110Z,16.50
2019-05-17T10:18:54.528Z,15.20
2019-05-17T10:21:25.909Z,16.47
2019-05-17T10:23:56.482Z,16.37
2019-05-17T10:26:26.843Z,15.47
2019-05-17T10:28:59.417Z,13.30
2019-05-17T10:31:30.512Z,14.80
2019-05-17T10:34:01.202Z,15.00
2019-05-17T10:36:32.106Z,13.70
2019-05-17T10:39:02.768Z,13.20
2019-05-17T10:41:34.068Z,13.90
2019-05-17T10:44:04.515Z,13.80
2019-05-17T10:46:35.011Z,13.93
2019-05-17T10:49:05.479Z,14.33
2019-05-17T10:51:35.966Z,14.10
2019-05-17T10:54:09.445Z,14.93
2019-05-17T10:56:39.350Z,15.27
2019-05-17T10:59:10.715Z,14.07
2019-05-17T11:01:41.464Z,14.00
2019-05-17T11:04:11.885Z,14.57
2019-05-17T11:06:44.012Z,14.27
2019-05-17T11:09:14.559Z,15.50
2019-05-17T11:11:45.007Z,15.27
2019-05-17T11:14:15.921Z,15.80
2019-05-17T11:16:46.374Z,16.10
2019-05-17T11:19:16.841Z,16.03
2019-05-17T11:21:47.661Z,14.47
2019-05-17T11:24:18.477Z,14.70
2019-05-17T11:26:49.570Z,15.30
2019-05-17T11:29:20.180Z,14.93
2019-05-17T11:31:50.673Z,14.47
2019-05-17T11:34:24.941Z,12.70
2019-05-17T11:36:53.254Z,11.50
2019-05-17T11:39:23.667Z,12.53
2019-05-17T11:41:54.093Z,11.80
2019-05-17T11:44:24.524Z,11.90
2019-05-17T11:46:54.981Z,11.07
2019-05-17T11:49:25.639Z,12.20
2019-05-17T11:51:56.153Z,11.70
2019-05-17T11:54:26.528Z,12.83
2019-05-17T11:56:56.879Z,11.87
2019-05-17T11:59:27.486Z,10.60
2019-05-17T12:01:57.968Z,12.03
2019-05-17T12:04:28.357Z,12.47
2019-05-17T12:06:58.878Z,15.37
2019-05-17T12:09:37.500Z,16.80
2019-05-17T12:12:01.519Z,14.70
2019-05-17T12:14:32.129Z,13.33
2019-05-17T12:17:02.492Z,10.67
2019-05-17T12:19:32.983Z,11.57
2019-05-17T12:22:03.523Z,12.00
2019-05-17T12:24:33.941Z,10.87
2019-05-17T12:27:04.578Z,11.40
2019-05-17T12:29:35.096Z,10.47
2019-05-17T12:32:06.550Z,10.30
2019-05-17T12:34:36.934Z,10.73
2019-05-17T12:37:07.408Z,10.43
2019-05-17T12:39:37.854Z,11.30
2019-05-17T12:42:08.615Z,10.30
2019-05-17T12:44:39.060Z,10.77
2019-05-17T12:47:09.904Z,11.47
2019-05-17T12:49:40.272Z,10.67
2019-05-17T12:52:11.107Z,11.50
2019-05-17T12:54:41.536Z,12.10
2019-05-17T12:57:11.883Z,12.80
2019-05-17T12:59:42.342Z,11.97
2019-05-17T13:02:12.767Z,12.00
2019-05-17T13:04:43.242Z,12.00
2019-05-17T13:07:14.865Z,11.77
2019-05-17T13:09:45.257Z,13.80
2019-05-17T13:12:15.645Z,12.37
2019-05-17T13:14:46.286Z,12.13
2019-05-17T13:17:16.903Z,13.47
2019-05-17T13:19:47.364Z,12.60
2019-05-17T13:22:17.921Z,12.37
2019-05-17T13:24:48.279Z,13.20
2019-05-17T13:27:18.639Z,14.10
2019-05-17T13:29:49.448Z,14.10
2019-05-17T13:32:19.989Z,12.80
2019-05-17T13:34:50.789Z,11.67
2019-05-17T13:37:21.244Z,12.87
2019-05-17T13:39:51.595Z,13.00
2019-05-17T13:42:22.030Z,13.77
2019-05-17T13:44:52.513Z,12.80
2019-05-17T13:47:23.793Z,12.93
2019-05-17T13:49:54.259Z,14.30
2019-05-17T13:52:25.238Z,14.63
2019-05-17T13:54:55.573Z,14.90
2019-05-17T13:57:25.994Z,13.53
2019-05-17T13:59:56.421Z,14.37
2019-05-17T14:02:26.950Z,14.83
2019-05-17T14:04:57.308Z,13.23
2019-05-17T14:07:27.841Z,13.60
2019-05-17T14:09:58.178Z,13.77
2019-05-17T14:12:28.646Z,13.53
2019-05-17T14:14:59.210Z,12.43
2019-05-17T14:17:29.574Z,12.23
2019-05-17T14:19:59.976Z,13.23
2019-05-17T14:22:30.504Z,11.07
2019-05-17T14:25:01.534Z,11.23
2019-05-17T14:27:31.914Z,11.47
2019-05-17T14:30:02.582Z,11.90
2019-05-17T14:42:58.486Z,15.43
2019-05-17T14:45:29.340Z,15.13
2019-05-17T14:48:00.152Z,15.40
2019-05-17T14:50:30.973Z,15.10
2019-05-17T14:53:02.040Z,14.43
2019-05-17T14:55:32.705Z,15.33
2019-05-17T14:58:05.344Z,15.80
2019-05-17T15:00:37.642Z,15.97
2019-05-17T15:03:08.633Z,15.10
2019-05-17T15:05:39.519Z,14.53
2019-05-17T15:08:11.298Z,15.20
2019-05-17T15:10:42.114Z,17.17
2019-05-17T15:13:12.735Z,15.33
2019-05-17T15:15:43.684Z,15.90
2019-05-17T15:18:14.316Z,15.17
2019-05-17T15:21:06.813Z,13.73
2019-05-17T15:23:39.223Z,14.60
2019-05-17T15:26:10.009Z,14.50
2019-05-17T15:28:40.885Z,14.80
2019-05-17T15:31:11.699Z,14.93
2019-05-17T15:33:42.576Z,15.47
2019-05-17T15:36:14.717Z,13.83
2019-05-17T15:38:46.020Z,14.20
2019-05-17T15:41:17.021Z,15.20
2019-05-17T15:43:47.784Z,16.20
2019-05-17T15:46:19.225Z,18.50
2019-05-17T15:48:50.370Z,15.30
2019-05-17T15:51:21.211Z,16.17
2019-05-17T15:53:52.095Z,17.60
2019-05-17T16:15:29.344Z,17.10
2019-05-17T16:18:00.085Z,18.47
2019-05-17T16:20:31.568Z,18.67
2019-05-17T16:23:03.123Z,17.27
2019-05-17T16:25:34.156Z,18.40
2019-05-17T16:28:05.139Z,19.00
2019-05-17T16:30:35.985Z,19.33
2019-05-17T16:33:06.811Z,18.17
2019-05-17T16:35:37.645Z,17.80
2019-05-17T16:38:10.022Z,16.83
2019-05-17T16:40:40.853Z,15.80
2019-05-17T16:43:18.241Z,14.53
2019-05-17T16:45:45.215Z,15.40
2019-05-17T16:48:16.172Z,13.23
2019-05-17T16:50:46.822Z,14.23
2019-05-17T16:53:17.525Z,12.40
2019-05-17T16:55:48.447Z,11.63
2019-05-17T16:58:19.379Z,10.83
2019-05-17T17:00:50.575Z,10.77
2019-05-17T17:03:21.552Z,11.17
2019-05-17T17:05:52.383Z,11.67
2019-05-17T17:08:23.278Z,12.17
2019-05-17T17:10:53.771Z,11.40
2019-05-17T17:13:32.751Z,9.57
2019-05-17T17:15:56.733Z,10.53
2019-05-17T17:18:27.619Z,10.20
2019-05-17T17:20:58.291Z,11.97
2019-05-17T17:23:29.005Z,13.97
2019-05-17T17:25:59.961Z,13.50
2019-05-17T17:28:30.396Z,13.43
2019-05-17T17:31:01.256Z,14.50
2019-05-17T17:33:31.796Z,14.27
2019-05-17T17:36:05.144Z,14.70
2019-05-17T17:38:37.194Z,13.03
2019-05-17T17:41:07.739Z,13.13
2019-05-17T17:43:38.069Z,10.97
2019-05-17T17:46:08.496Z,10.20
2019-05-17T17:48:39.103Z,12.73
2019-05-17T17:51:09.701Z,13.77
2019-05-17T17:53:40.245Z,11.20
2019-05-17T17:56:13.563Z,10.93
2019-05-17T17:58:44.072Z,11.00
2019-05-17T18:01:14.671Z,11.33
2019-05-17T18:03:45.398Z,10.63
2019-05-17T18:06:16.088Z,9.50
2019-05-17T18:08:46.691Z,10.90
2019-05-17T18:11:17.632Z,11.20
2019-05-17T18:13:48.226Z,9.73
2019-05-17T18:16:18.873Z,10.00
2019-05-17T18:18:49.508Z,10.70
2019-05-17T18:21:20.215Z,11.83
2019-05-17T18:23:53.295Z,13.20
2019-05-17T18:26:23.842Z,11.60
2019-05-17T18:28:54.224Z,11.57
2019-05-17T18:31:25.212Z,9.50
2019-05-17T18:33:55.951Z,9.47
2019-05-17T18:36:26.295Z,9.97
2019-05-17T18:38:58.793Z,9.20
2019-05-17T18:41:29.357Z,8.53
2019-05-17T18:43:59.952Z,8.83
2019-05-17T18:46:30.535Z,10.50
2019-05-17T18:49:01.111Z,10.27
2019-05-17T18:51:31.864Z,9.50
2019-05-17T18:54:03.415Z,16.77
2019-05-17T18:56:33.882Z,11.87
2019-05-17T18:59:04.445Z,23.00
2019-05-17T19:01:35.052Z,12.00
2019-05-17T19:04:05.602Z,9.90
2019-05-17T19:06:37.076Z,8.60
2019-05-17T19:09:09.950Z,9.93
2019-05-17T19:11:40.720Z,9.00
2019-05-17T19:14:11.685Z,14.00
2019-05-17T19:16:42.601Z,8.60
2019-05-17T19:19:13.175Z,6.83
2019-05-17T19:21:44.939Z,6.43
2019-05-17T19:24:15.640Z,7.63
2019-05-17T19:26:46.301Z,7.77
2019-05-17T19:29:16.667Z,7.90
2019-05-17T19:31:47.849Z,8.17
2019-05-17T19:34:19.352Z,7.00
2019-05-17T19:36:49.789Z,8.07
2019-05-17T19:39:22.279Z,6.90
2019-05-17T19:41:52.828Z,6.60
2019-05-17T19:44:23.280Z,5.80
2019-05-17T19:46:53.819Z,6.00
2019-05-17T19:49:25.018Z,6.50
2019-05-17T19:51:56.312Z,7.53
2019-05-17T19:54:26.945Z,8.07
2019-05-17T19:56:57.556Z,6.70
2019-05-17T19:59:28.153Z,7.27
2019-05-17T20:01:58.706Z,7.10
2019-05-17T20:04:29.187Z,7.23
2019-05-17T20:07:00.263Z,7.63
2019-05-17T20:09:30.751Z,7.13
2019-05-17T20:12:01.240Z,7.20
2019-05-17T20:14:31.849Z,6.70
2019-05-17T20:17:02.628Z,8.03
2019-05-17T20:19:33.094Z,7.30
2019-05-17T20:22:03.830Z,7.80
2019-05-17T20:24:34.665Z,8.17
2019-05-17T20:27:05.428Z,8.37
2019-05-17T20:29:36.742Z,8.80
2019-05-17T20:32:07.368Z,8.23
2019-05-17T20:34:37.783Z,7.13
2019-05-17T20:37:09.268Z,5.63
2019-05-17T20:39:40.971Z,5.03
2019-05-17T20:42:11.481Z,5.43
2019-05-17T20:44:42.286Z,5.50
2019-05-17T20:47:12.791Z,4.90
2019-05-17T20:49:43.466Z,5.30
2019-05-17T20:52:14.830Z,8.47
2019-05-17T20:54:45.377Z,14.03
2019-05-17T20:57:19.792Z,11.30
2019-05-17T20:59:50.064Z,11.47
2019-05-17T21:02:20.447Z,8.97
2019-05-17T21:04:50.620Z,6.53
2019-05-17T21:07:21.009Z,7.63
2019-05-17T21:09:51.278Z,8.03
2019-05-17T21:12:21.522Z,8.50
2019-05-17T21:14:56.166Z,7.50
2019-05-17T21:17:24.586Z,5.80
2019-05-17T21:19:54.820Z,4.93
2019-05-17T21:22:25.860Z,4.93
2019-05-17T21:24:56.103Z,5.27
2019-05-17T21:27:26.369Z,12.73
2019-05-17T21:29:56.793Z,15.03
2019-05-17T21:32:27.024Z,16.03
2019-05-17T21:34:57.237Z,14.50
2019-05-17T21:37:27.536Z,11.83
2019-05-17T21:39:58.870Z,7.30
2019-05-17T21:42:29.178Z,7.63
2019-05-17T21:44:59.828Z,11.27
2019-05-17T21:47:32.209Z,7.43
2019-05-17T21:50:02.503Z,7.70
2019-05-17T21:52:32.832Z,9.20
2019-05-17T21:55:03.074Z,8.83
2019-05-17T21:57:35.245Z,9.37
2019-05-17T22:00:09.405Z,9.47
2019-05-17T22:02:41.974Z,9.70
2019-05-17T22:05:12.654Z,9.50
2019-05-17T22:07:43.185Z,9.33
2019-05-17T22:10:17.068Z,8.90
2019-05-17T22:12:47.736Z,10.07
2019-05-17T22:15:18.787Z,9.60
2019-05-17T22:17:49.419Z,9.80
2019-05-17T22:20:20.044Z,10.60
2019-05-17T22:22:50.446Z,9.27
2019-05-17T22:25:21.308Z,9.90
2019-05-17T22:27:54.750Z,10.20
2019-05-17T22:30:25.138Z,10.20
2019-05-17T22:32:58.104Z,10.23
2019-05-17T22:35:28.843Z,11.07
2019-05-17T22:37:59.256Z,11.40
2019-05-17T22:40:30.983Z,12.27
2019-05-17T22:43:01.651Z,12.30
2019-05-17T22:45:34.189Z,11.93
2019-05-17T22:48:04.788Z,11.80
2019-05-17T22:50:35.560Z,12.40
2019-05-17T22:53:06.099Z,12.37
2019-05-17T22:55:36.908Z,12.30
2019-05-17T22:58:07.369Z,12.70
2019-05-17T23:00:38.175Z,12.17
2019-05-17T23:03:09.069Z,12.03
2019-05-17T23:05:39.643Z,12.10
2019-05-17T23:08:10.622Z,12.20
2019-05-17T23:10:41.306Z,12.77
2019-05-17T23:13:12.231Z,12.43
2019-05-17T23:16:02.960Z,12.10
2019-05-17T23:19:10.106Z,12.37
2019-05-17T23:21:40.875Z,12.73
2019-05-17T23:24:11.977Z,11.93
2019-05-17T23:26:43.068Z,12.20
2019-05-17T23:29:14.022Z,11.37
2019-05-17T23:31:45.220Z,10.90
2019-05-17T23:34:15.573Z,11.77
2019-05-17T23:36:48.331Z,11.50
2019-05-17T23:39:18.751Z,10.77
2019-05-17T23:41:50.523Z,9.77
2019-05-17T23:44:24.302Z,11.00
2019-05-17T23:47:06.565Z,8.50
2019-05-17T23:49:27.610Z,9.50
2019-05-17T23:51:58.817Z,9.53
2019-05-17T23:54:29.747Z,9.30
2019-05-17T23:57:00.339Z,8.73
2019-05-17T23:59:32.260Z,8.70
